sensor_id;sensor_type;location;lat;lon;timestamp;P1;durP1;ratioP1;P2;durP2;ratioP2
58294;SDS011;45705;55.592;37.460;2023-12-22T00:01:29;9.90;;;6.65;;
58294;SDS011;45705;55.592;37.460;2023-12-22T00:03:55;9.80;;;6.78;;
58294;SDS011;45705;55.592;37.460;2023-12-22T00:06:21;9.55;;;6.30;;
58294;SDS011;45705;55.592;37.460;2023-12-22T00:08:47;10.63;;;5.97;;
58294;SDS011;45705;55.592;37.460;2023-12-22T00:11:13;10.38;;;6.05;;
58294;SDS011;45705;55.592;37.460;2023-12-22T00:13:39;10.40;;;6.00;;
58294;SDS011;45705;55.592;37.460;2023-12-22T00:16:05;12.50;;;6.43;;
58294;SDS011;45705;55.592;37.460;2023-12-22T00:18:31;9.30;;;6.03;;
58294;SDS011;45705;55.592;37.460;2023-12-22T00:20:56;10.60;;;6.00;;
58294;SDS011;45705;55.592;37.460;2023-12-22T00:23:22;10.55;;;6.32;;
58294;SDS011;45705;55.592;37.460;2023-12-22T00:25:48;11.70;;;5.60;;
58294;SDS011;45705;55.592;37.460;2023-12-22T00:28:14;10.52;;;5.85;;
58294;SDS011;45705;55.592;37.460;2023-12-22T00:33:43;10.40;;;5.95;;
58294;SDS011;45705;55.592;37.460;2023-12-22T00:36:09;11.23;;;6.07;;
58294;SDS011;45705;55.592;37.460;2023-12-22T00:38:35;12.48;;;6.60;;
58294;SDS011;45705;55.592;37.460;2023-12-22T00:41:00;10.05;;;5.55;;
58294;SDS011;45705;55.592;37.460;2023-12-22T00:43:26;10.68;;;5.82;;
58294;SDS011;45705;55.592;37.460;2023-12-22T00:45:52;9.80;;;5.95;;
58294;SDS011;45705;55.592;37.460;2023-12-22T00:48:18;9.75;;;6.40;;
58294;SDS011;45705;55.592;37.460;2023-12-22T00:50:43;12.02;;;6.25;;
58294;SDS011;45705;55.592;37.460;2023-12-22T00:53:09;8.77;;;5.82;;
58294;SDS011;45705;55.592;37.460;2023-12-22T00:55:35;11.18;;;6.35;;
58294;SDS011;45705;55.592;37.460;2023-12-22T00:58:01;13.20;;;6.47;;
58294;SDS011;45705;55.592;37.460;2023-12-22T01:00:27;12.77;;;6.70;;
58294;SDS011;45705;55.592;37.460;2023-12-22T01:02:52;11.00;;;6.32;;
58294;SDS011;45705;55.592;37.460;2023-12-22T01:05:18;12.45;;;7.05;;
58294;SDS011;45705;55.592;37.460;2023-12-22T01:07:44;10.15;;;5.90;;
58294;SDS011;45705;55.592;37.460;2023-12-22T01:10:10;12.00;;;6.68;;
58294;SDS011;45705;55.592;37.460;2023-12-22T01:12:36;11.23;;;7.00;;
58294;SDS011;45705;55.592;37.460;2023-12-22T01:15:02;10.63;;;6.07;;
58294;SDS011;45705;55.592;37.460;2023-12-22T01:17:30;12.68;;;6.80;;
58294;SDS011;45705;55.592;37.460;2023-12-22T01:19:56;11.57;;;6.15;;
58294;SDS011;45705;55.592;37.460;2023-12-22T01:22:22;12.05;;;7.38;;
58294;SDS011;45705;55.592;37.460;2023-12-22T01:24:48;10.57;;;7.22;;
58294;SDS011;45705;55.592;37.460;2023-12-22T01:27:14;13.10;;;7.28;;
58294;SDS011;45705;55.592;37.460;2023-12-22T01:29:40;12.20;;;6.85;;
58294;SDS011;45705;55.592;37.460;2023-12-22T01:32:06;12.77;;;7.55;;
58294;SDS011;45705;55.592;37.460;2023-12-22T01:34:32;11.02;;;6.43;;
58294;SDS011;45705;55.592;37.460;2023-12-22T01:36:58;13.95;;;6.95;;
58294;SDS011;45705;55.592;37.460;2023-12-22T01:39:23;14.40;;;7.30;;
58294;SDS011;45705;55.592;37.460;2023-12-22T01:41:49;15.27;;;8.07;;
58294;SDS011;45705;55.592;37.460;2023-12-22T01:44:15;17.45;;;8.68;;
58294;SDS011;45705;55.592;37.460;2023-12-22T01:46:40;14.07;;;8.18;;
58294;SDS011;45705;55.592;37.460;2023-12-22T01:49:06;16.23;;;8.32;;
58294;SDS011;45705;55.592;37.460;2023-12-22T01:51:34;12.90;;;7.53;;
58294;SDS011;45705;55.592;37.460;2023-12-22T01:56:29;12.73;;;7.45;;
58294;SDS011;45705;55.592;37.460;2023-12-22T01:58:57;16.85;;;7.55;;
58294;SDS011;45705;55.592;37.460;2023-12-22T02:01:26;14.80;;;7.47;;
58294;SDS011;45705;55.592;37.460;2023-12-22T02:03:53;14.38;;;8.20;;
58294;SDS011;45705;55.592;37.460;2023-12-22T02:06:19;10.73;;;7.18;;
58294;SDS011;45705;55.592;37.460;2023-12-22T02:08:46;12.45;;;8.13;;
58294;SDS011;45705;55.592;37.460;2023-12-22T02:11:13;15.68;;;7.68;;
58294;SDS011;45705;55.592;37.460;2023-12-22T02:13:42;14.88;;;8.00;;
58294;SDS011;45705;55.592;37.460;2023-12-22T02:16:20;14.70;;;8.15;;
58294;SDS011;45705;55.592;37.460;2023-12-22T02:18:52;14.50;;;8.10;;
58294;SDS011;45705;55.592;37.460;2023-12-22T02:21:22;15.00;;;7.55;;
58294;SDS011;45705;55.592;37.460;2023-12-22T02:23:48;14.45;;;7.70;;
58294;SDS011;45705;55.592;37.460;2023-12-22T02:26:32;10.98;;;6.82;;
58294;SDS011;45705;55.592;37.460;2023-12-22T02:29:03;14.43;;;7.32;;
58294;SDS011;45705;55.592;37.460;2023-12-22T02:31:37;15.73;;;7.93;;
58294;SDS011;45705;55.592;37.460;2023-12-22T02:34:12;17.50;;;6.82;;
58294;SDS011;45705;55.592;37.460;2023-12-22T02:36:43;16.42;;;7.85;;
58294;SDS011;45705;55.592;37.460;2023-12-22T02:39:11;11.88;;;6.65;;
58294;SDS011;45705;55.592;37.460;2023-12-22T02:41:37;19.60;;;8.75;;
58294;SDS011;45705;55.592;37.460;2023-12-22T02:44:04;16.35;;;8.48;;
58294;SDS011;45705;55.592;37.460;2023-12-22T02:46:30;14.70;;;7.65;;
58294;SDS011;45705;55.592;37.460;2023-12-22T02:48:55;13.35;;;8.13;;
58294;SDS011;45705;55.592;37.460;2023-12-22T02:51:21;12.60;;;7.25;;
58294;SDS011;45705;55.592;37.460;2023-12-22T02:53:47;14.20;;;8.13;;
58294;SDS011;45705;55.592;37.460;2023-12-22T02:56:13;15.13;;;8.02;;
58294;SDS011;45705;55.592;37.460;2023-12-22T02:58:38;14.13;;;9.23;;
58294;SDS011;45705;55.592;37.460;2023-12-22T03:01:04;14.85;;;9.27;;
58294;SDS011;45705;55.592;37.460;2023-12-22T03:03:30;17.38;;;9.27;;
58294;SDS011;45705;55.592;37.460;2023-12-22T03:05:55;13.85;;;8.35;;
58294;SDS011;45705;55.592;37.460;2023-12-22T03:08:21;15.75;;;8.90;;
58294;SDS011;45705;55.592;37.460;2023-12-22T03:10:47;16.88;;;9.18;;
58294;SDS011;45705;55.592;37.460;2023-12-22T03:13:13;15.20;;;9.85;;
58294;SDS011;45705;55.592;37.460;2023-12-22T03:15:38;14.05;;;7.78;;
58294;SDS011;45705;55.592;37.460;2023-12-22T03:18:04;14.43;;;8.98;;
58294;SDS011;45705;55.592;37.460;2023-12-22T03:20:30;13.00;;;7.78;;
58294;SDS011;45705;55.592;37.460;2023-12-22T03:22:56;17.08;;;9.40;;
58294;SDS011;45705;55.592;37.460;2023-12-22T03:25:21;11.75;;;7.88;;
58294;SDS011;45705;55.592;37.460;2023-12-22T03:27:47;14.70;;;8.57;;
58294;SDS011;45705;55.592;37.460;2023-12-22T03:30:13;13.05;;;8.15;;
58294;SDS011;45705;55.592;37.460;2023-12-22T03:32:39;16.83;;;9.70;;
58294;SDS011;45705;55.592;37.460;2023-12-22T03:35:05;13.02;;;8.65;;
58294;SDS011;45705;55.592;37.460;2023-12-22T03:37:31;15.43;;;9.13;;
58294;SDS011;45705;55.592;37.460;2023-12-22T03:39:57;15.68;;;9.23;;
58294;SDS011;45705;55.592;37.460;2023-12-22T03:42:23;13.05;;;7.65;;
58294;SDS011;45705;55.592;37.460;2023-12-22T03:44:49;15.27;;;7.38;;
58294;SDS011;45705;55.592;37.460;2023-12-22T03:47:14;12.15;;;7.80;;
58294;SDS011;45705;55.592;37.460;2023-12-22T03:49:41;16.70;;;9.07;;
58294;SDS011;45705;55.592;37.460;2023-12-22T03:52:06;12.95;;;8.45;;
58294;SDS011;45705;55.592;37.460;2023-12-22T03:54:32;18.35;;;8.85;;
58294;SDS011;45705;55.592;37.460;2023-12-22T03:56:58;15.77;;;9.02;;
58294;SDS011;45705;55.592;37.460;2023-12-22T03:59:23;16.73;;;9.40;;
58294;SDS011;45705;55.592;37.460;2023-12-22T04:01:52;17.83;;;7.50;;
58294;SDS011;45705;55.592;37.460;2023-12-22T04:04:19;15.35;;;9.30;;
58294;SDS011;45705;55.592;37.460;2023-12-22T04:06:45;19.80;;;9.63;;
58294;SDS011;45705;55.592;37.460;2023-12-22T04:09:11;22.50;;;10.00;;
58294;SDS011;45705;55.592;37.460;2023-12-22T04:11:37;22.17;;;10.32;;
58294;SDS011;45705;55.592;37.460;2023-12-22T04:14:02;23.45;;;10.07;;
58294;SDS011;45705;55.592;37.460;2023-12-22T04:16:28;23.60;;;10.77;;
58294;SDS011;45705;55.592;37.460;2023-12-22T04:18:54;19.17;;;10.65;;
58294;SDS011;45705;55.592;37.460;2023-12-22T04:21:19;27.02;;;11.75;;
58294;SDS011;45705;55.592;37.460;2023-12-22T04:23:45;25.75;;;11.10;;
58294;SDS011;45705;55.592;37.460;2023-12-22T04:26:11;28.60;;;10.02;;
58294;SDS011;45705;55.592;37.460;2023-12-22T04:28:37;20.52;;;10.48;;
58294;SDS011;45705;55.592;37.460;2023-12-22T04:31:02;25.35;;;11.43;;
58294;SDS011;45705;55.592;37.460;2023-12-22T04:33:28;21.98;;;10.00;;
58294;SDS011;45705;55.592;37.460;2023-12-22T04:35:55;26.00;;;12.05;;
58294;SDS011;45705;55.592;37.460;2023-12-22T04:38:21;26.88;;;10.80;;
58294;SDS011;45705;55.592;37.460;2023-12-22T04:40:46;21.17;;;10.35;;
58294;SDS011;45705;55.592;37.460;2023-12-22T04:43:12;23.00;;;12.43;;
58294;SDS011;45705;55.592;37.460;2023-12-22T04:45:38;24.02;;;11.00;;
58294;SDS011;45705;55.592;37.460;2023-12-22T04:48:04;20.30;;;9.43;;
58294;SDS011;45705;55.592;37.460;2023-12-22T04:50:30;26.67;;;11.65;;
58294;SDS011;45705;55.592;37.460;2023-12-22T04:52:56;23.60;;;10.82;;
58294;SDS011;45705;55.592;37.460;2023-12-22T04:55:21;29.00;;;10.55;;
58294;SDS011;45705;55.592;37.460;2023-12-22T04:57:47;32.83;;;11.90;;
58294;SDS011;45705;55.592;37.460;2023-12-22T05:00:13;27.33;;;11.10;;
58294;SDS011;45705;55.592;37.460;2023-12-22T05:02:39;22.52;;;10.90;;
58294;SDS011;45705;55.592;37.460;2023-12-22T05:05:05;24.83;;;11.02;;
58294;SDS011;45705;55.592;37.460;2023-12-22T05:07:33;22.98;;;10.50;;
58294;SDS011;45705;55.592;37.460;2023-12-22T05:10:00;26.70;;;10.55;;
58294;SDS011;45705;55.592;37.460;2023-12-22T05:12:26;27.70;;;12.18;;
58294;SDS011;45705;55.592;37.460;2023-12-22T05:14:52;29.33;;;12.30;;
58294;SDS011;45705;55.592;37.460;2023-12-22T05:17:18;31.52;;;11.95;;
58294;SDS011;45705;55.592;37.460;2023-12-22T05:19:44;26.65;;;12.13;;
58294;SDS011;45705;55.592;37.460;2023-12-22T05:22:09;32.35;;;11.85;;
58294;SDS011;45705;55.592;37.460;2023-12-22T05:24:36;32.28;;;13.05;;
58294;SDS011;45705;55.592;37.460;2023-12-22T05:27:03;30.83;;;13.68;;
58294;SDS011;45705;55.592;37.460;2023-12-22T05:29:29;36.15;;;12.90;;
58294;SDS011;45705;55.592;37.460;2023-12-22T05:31:55;33.47;;;13.52;;
58294;SDS011;45705;55.592;37.460;2023-12-22T05:34:21;37.60;;;15.38;;
58294;SDS011;45705;55.592;37.460;2023-12-22T05:36:46;35.25;;;15.10;;
58294;SDS011;45705;55.592;37.460;2023-12-22T05:39:12;35.90;;;14.93;;
58294;SDS011;45705;55.592;37.460;2023-12-22T05:41:38;34.70;;;15.35;;
58294;SDS011;45705;55.592;37.460;2023-12-22T05:44:04;40.15;;;14.52;;
58294;SDS011;45705;55.592;37.460;2023-12-22T05:46:36;38.22;;;15.40;;
58294;SDS011;45705;55.592;37.460;2023-12-22T05:49:03;27.67;;;13.05;;
58294;SDS011;45705;55.592;37.460;2023-12-22T05:51:29;40.83;;;17.23;;
58294;SDS011;45705;55.592;37.460;2023-12-22T05:54:01;32.95;;;16.08;;
58294;SDS011;45705;55.592;37.460;2023-12-22T05:56:27;34.95;;;16.63;;
58294;SDS011;45705;55.592;37.460;2023-12-22T05:58:53;38.05;;;17.38;;
58294;SDS011;45705;55.592;37.460;2023-12-22T06:01:20;30.13;;;15.43;;
58294;SDS011;45705;55.592;37.460;2023-12-22T06:03:45;34.55;;;17.83;;
58294;SDS011;45705;55.592;37.460;2023-12-22T06:06:12;32.53;;;17.00;;
58294;SDS011;45705;55.592;37.460;2023-12-22T06:08:38;39.80;;;18.15;;
58294;SDS011;45705;55.592;37.460;2023-12-22T06:11:04;34.67;;;16.90;;
58294;SDS011;45705;55.592;37.460;2023-12-22T06:13:30;44.00;;;17.88;;
58294;SDS011;45705;55.592;37.460;2023-12-22T06:15:57;42.35;;;16.85;;
58294;SDS011;45705;55.592;37.460;2023-12-22T06:18:23;38.88;;;17.38;;
58294;SDS011;45705;55.592;37.460;2023-12-22T06:20:49;44.13;;;18.05;;
58294;SDS011;45705;55.592;37.460;2023-12-22T06:23:15;43.22;;;18.67;;
58294;SDS011;45705;55.592;37.460;2023-12-22T06:25:41;32.25;;;15.75;;
58294;SDS011;45705;55.592;37.460;2023-12-22T06:28:06;26.63;;;14.52;;
58294;SDS011;45705;55.592;37.460;2023-12-22T06:30:32;33.30;;;15.68;;
58294;SDS011;45705;55.592;37.460;2023-12-22T06:32:58;29.05;;;15.02;;
58294;SDS011;45705;55.592;37.460;2023-12-22T06:35:24;30.85;;;16.60;;
58294;SDS011;45705;55.592;37.460;2023-12-22T06:37:51;26.42;;;14.02;;
58294;SDS011;45705;55.592;37.460;2023-12-22T06:40:21;23.35;;;13.82;;
58294;SDS011;45705;55.592;37.460;2023-12-22T06:42:49;27.52;;;13.13;;
58294;SDS011;45705;55.592;37.460;2023-12-22T06:45:15;28.13;;;14.80;;
58294;SDS011;45705;55.592;37.460;2023-12-22T06:47:41;24.95;;;14.88;;
58294;SDS011;45705;55.592;37.460;2023-12-22T06:52:43;26.27;;;14.20;;
58294;SDS011;45705;55.592;37.460;2023-12-22T06:55:09;22.33;;;11.75;;
58294;SDS011;45705;55.592;37.460;2023-12-22T06:57:35;26.83;;;14.32;;
58294;SDS011;45705;55.592;37.460;2023-12-22T07:00:01;27.13;;;14.27;;
58294;SDS011;45705;55.592;37.460;2023-12-22T07:02:30;23.13;;;13.13;;
58294;SDS011;45705;55.592;37.460;2023-12-22T07:05:29;21.67;;;11.52;;
58294;SDS011;45705;55.592;37.460;2023-12-22T07:07:48;25.02;;;13.68;;
58294;SDS011;45705;55.592;37.460;2023-12-22T07:10:14;25.27;;;13.95;;
58294;SDS011;45705;55.592;37.460;2023-12-22T07:12:40;27.27;;;14.63;;
58294;SDS011;45705;55.592;37.460;2023-12-22T07:15:06;26.33;;;14.65;;
58294;SDS011;45705;55.592;37.460;2023-12-22T07:17:33;25.65;;;13.93;;
58294;SDS011;45705;55.592;37.460;2023-12-22T07:19:59;24.23;;;14.45;;
58294;SDS011;45705;55.592;37.460;2023-12-22T07:22:25;26.60;;;15.02;;
58294;SDS011;45705;55.592;37.460;2023-12-22T07:24:50;24.65;;;14.30;;
58294;SDS011;45705;55.592;37.460;2023-12-22T07:27:18;25.95;;;14.68;;
58294;SDS011;45705;55.592;37.460;2023-12-22T07:29:44;25.17;;;15.27;;
58294;SDS011;45705;55.592;37.460;2023-12-22T07:32:09;28.65;;;14.93;;
58294;SDS011;45705;55.592;37.460;2023-12-22T07:34:35;29.00;;;15.15;;
58294;SDS011;45705;55.592;37.460;2023-12-22T07:37:01;31.98;;;14.32;;
58294;SDS011;45705;55.592;37.460;2023-12-22T07:39:26;30.80;;;14.32;;
58294;SDS011;45705;55.592;37.460;2023-12-22T07:41:52;31.55;;;13.50;;
58294;SDS011;45705;55.592;37.460;2023-12-22T07:44:18;28.85;;;14.75;;
58294;SDS011;45705;55.592;37.460;2023-12-22T07:46:44;28.70;;;15.00;;
58294;SDS011;45705;55.592;37.460;2023-12-22T07:49:09;35.30;;;14.82;;
58294;SDS011;45705;55.592;37.460;2023-12-22T07:51:35;28.80;;;14.00;;
58294;SDS011;45705;55.592;37.460;2023-12-22T07:54:01;34.53;;;16.00;;
58294;SDS011;45705;55.592;37.460;2023-12-22T07:56:27;31.73;;;14.25;;
58294;SDS011;45705;55.592;37.460;2023-12-22T07:58:53;27.15;;;11.55;;
58294;SDS011;45705;55.592;37.460;2023-12-22T08:01:19;27.33;;;11.75;;
58294;SDS011;45705;55.592;37.460;2023-12-22T08:03:44;22.00;;;11.57;;
58294;SDS011;45705;55.592;37.460;2023-12-22T08:06:10;32.83;;;12.43;;
58294;SDS011;45705;55.592;37.460;2023-12-22T08:08:36;32.33;;;13.50;;
58294;SDS011;45705;55.592;37.460;2023-12-22T08:11:02;24.52;;;11.95;;
58294;SDS011;45705;55.592;37.460;2023-12-22T08:13:27;20.15;;;10.77;;
58294;SDS011;45705;55.592;37.460;2023-12-22T08:15:53;22.08;;;11.57;;
58294;SDS011;45705;55.592;37.460;2023-12-22T08:18:19;21.30;;;11.32;;
58294;SDS011;45705;55.592;37.460;2023-12-22T08:20:45;25.58;;;11.35;;
58294;SDS011;45705;55.592;37.460;2023-12-22T08:23:11;30.35;;;11.75;;
58294;SDS011;45705;55.592;37.460;2023-12-22T08:25:37;20.70;;;11.30;;
58294;SDS011;45705;55.592;37.460;2023-12-22T08:28:04;17.70;;;10.10;;
58294;SDS011;45705;55.592;37.460;2023-12-22T08:30:30;18.48;;;10.45;;
58294;SDS011;45705;55.592;37.460;2023-12-22T08:32:56;19.75;;;10.45;;
58294;SDS011;45705;55.592;37.460;2023-12-22T08:35:22;17.30;;;10.23;;
58294;SDS011;45705;55.592;37.460;2023-12-22T08:37:47;20.00;;;9.75;;
58294;SDS011;45705;55.592;37.460;2023-12-22T08:40:13;17.10;;;8.20;;
58294;SDS011;45705;55.592;37.460;2023-12-22T08:42:39;14.93;;;8.52;;
58294;SDS011;45705;55.592;37.460;2023-12-22T08:45:05;14.55;;;8.82;;
58294;SDS011;45705;55.592;37.460;2023-12-22T08:47:31;16.88;;;9.55;;
58294;SDS011;45705;55.592;37.460;2023-12-22T08:49:57;14.88;;;8.77;;
58294;SDS011;45705;55.592;37.460;2023-12-22T08:52:22;17.52;;;9.00;;
58294;SDS011;45705;55.592;37.460;2023-12-22T08:54:48;13.90;;;8.48;;
58294;SDS011;45705;55.592;37.460;2023-12-22T08:57:14;14.32;;;7.78;;
58294;SDS011;45705;55.592;37.460;2023-12-22T08:59:40;16.38;;;9.35;;
58294;SDS011;45705;55.592;37.460;2023-12-22T09:02:05;17.63;;;8.85;;
58294;SDS011;45705;55.592;37.460;2023-12-22T09:04:31;16.60;;;8.60;;
58294;SDS011;45705;55.592;37.460;2023-12-22T09:06:57;14.20;;;8.50;;
58294;SDS011;45705;55.592;37.460;2023-12-22T09:09:23;17.98;;;8.70;;
58294;SDS011;45705;55.592;37.460;2023-12-22T09:11:50;14.73;;;8.02;;
58294;SDS011;45705;55.592;37.460;2023-12-22T09:14:15;16.98;;;9.55;;
58294;SDS011;45705;55.592;37.460;2023-12-22T09:16:41;12.25;;;7.82;;
58294;SDS011;45705;55.592;37.460;2023-12-22T09:19:09;16.75;;;7.25;;
58294;SDS011;45705;55.592;37.460;2023-12-22T09:21:35;15.32;;;8.65;;
58294;SDS011;45705;55.592;37.460;2023-12-22T09:24:01;18.35;;;8.13;;
58294;SDS011;45705;55.592;37.460;2023-12-22T09:26:26;14.07;;;8.48;;
58294;SDS011;45705;55.592;37.460;2023-12-22T09:28:53;15.07;;;9.63;;
58294;SDS011;45705;55.592;37.460;2023-12-22T09:31:20;15.38;;;8.95;;
58294;SDS011;45705;55.592;37.460;2023-12-22T09:33:47;19.63;;;11.07;;
58294;SDS011;45705;55.592;37.460;2023-12-22T09:36:14;17.67;;;8.55;;
58294;SDS011;45705;55.592;37.460;2023-12-22T09:38:39;16.95;;;9.77;;
58294;SDS011;45705;55.592;37.460;2023-12-22T09:41:07;16.50;;;10.38;;
58294;SDS011;45705;55.592;37.460;2023-12-22T09:43:33;18.05;;;10.68;;
58294;SDS011;45705;55.592;37.460;2023-12-22T09:46:04;17.00;;;9.95;;
58294;SDS011;45705;55.592;37.460;2023-12-22T09:48:31;18.40;;;9.65;;
58294;SDS011;45705;55.592;37.460;2023-12-22T09:51:01;18.17;;;11.18;;
58294;SDS011;45705;55.592;37.460;2023-12-22T09:53:27;19.63;;;11.05;;
58294;SDS011;45705;55.592;37.460;2023-12-22T09:55:56;20.10;;;11.40;;
58294;SDS011;45705;55.592;37.460;2023-12-22T09:58:24;20.73;;;11.32;;
58294;SDS011;45705;55.592;37.460;2023-12-22T10:00:49;18.73;;;11.13;;
58294;SDS011;45705;55.592;37.460;2023-12-22T10:03:17;18.75;;;9.88;;
58294;SDS011;45705;55.592;37.460;2023-12-22T10:05:44;19.25;;;11.38;;
58294;SDS011;45705;55.592;37.460;2023-12-22T10:08:10;20.95;;;12.60;;
58294;SDS011;45705;55.592;37.460;2023-12-22T10:10:38;22.73;;;12.00;;
58294;SDS011;45705;55.592;37.460;2023-12-22T10:13:08;16.77;;;10.35;;
58294;SDS011;45705;55.592;37.460;2023-12-22T10:15:37;19.27;;;10.77;;
58294;SDS011;45705;55.592;37.460;2023-12-22T10:18:07;17.15;;;10.45;;
58294;SDS011;45705;55.592;37.460;2023-12-22T10:20:34;19.20;;;11.60;;
58294;SDS011;45705;55.592;37.460;2023-12-22T10:23:01;22.13;;;11.65;;
58294;SDS011;45705;55.592;37.460;2023-12-22T10:25:27;15.30;;;9.98;;
58294;SDS011;45705;55.592;37.460;2023-12-22T10:27:58;20.67;;;11.65;;
58294;SDS011;45705;55.592;37.460;2023-12-22T10:30:23;20.08;;;12.32;;
58294;SDS011;45705;55.592;37.460;2023-12-22T10:32:50;21.50;;;12.25;;
58294;SDS011;45705;55.592;37.460;2023-12-22T10:35:17;21.70;;;12.40;;
58294;SDS011;45705;55.592;37.460;2023-12-22T10:37:45;22.83;;;11.32;;
58294;SDS011;45705;55.592;37.460;2023-12-22T10:40:12;20.25;;;12.75;;
58294;SDS011;45705;55.592;37.460;2023-12-22T10:42:39;20.95;;;11.90;;
58294;SDS011;45705;55.592;37.460;2023-12-22T10:45:06;21.20;;;12.85;;
58294;SDS011;45705;55.592;37.460;2023-12-22T10:47:33;22.35;;;13.55;;
58294;SDS011;45705;55.592;37.460;2023-12-22T10:50:02;23.27;;;12.90;;
58294;SDS011;45705;55.592;37.460;2023-12-22T10:52:30;26.10;;;12.98;;
58294;SDS011;45705;55.592;37.460;2023-12-22T10:54:59;21.88;;;12.95;;
58294;SDS011;45705;55.592;37.460;2023-12-22T10:57:26;24.23;;;11.90;;
58294;SDS011;45705;55.592;37.460;2023-12-22T10:59:53;21.85;;;11.80;;
58294;SDS011;45705;55.592;37.460;2023-12-22T11:04:57;19.30;;;11.90;;
58294;SDS011;45705;55.592;37.460;2023-12-22T11:07:27;24.55;;;12.07;;
58294;SDS011;45705;55.592;37.460;2023-12-22T11:09:55;19.73;;;11.77;;
58294;SDS011;45705;55.592;37.460;2023-12-22T11:12:22;20.67;;;11.82;;
58294;SDS011;45705;55.592;37.460;2023-12-22T11:14:49;19.45;;;10.68;;
58294;SDS011;45705;55.592;37.460;2023-12-22T11:17:21;21.73;;;11.90;;
58294;SDS011;45705;55.592;37.460;2023-12-22T11:19:52;23.38;;;11.23;;
58294;SDS011;45705;55.592;37.460;2023-12-22T11:22:19;22.15;;;12.23;;
58294;SDS011;45705;55.592;37.460;2023-12-22T11:24:47;21.08;;;11.90;;
58294;SDS011;45705;55.592;37.460;2023-12-22T11:27:17;18.92;;;10.82;;
58294;SDS011;45705;55.592;37.460;2023-12-22T11:29:46;24.83;;;11.10;;
58294;SDS011;45705;55.592;37.460;2023-12-22T11:32:18;22.02;;;11.48;;
58294;SDS011;45705;55.592;37.460;2023-12-22T11:34:45;22.52;;;12.30;;
58294;SDS011;45705;55.592;37.460;2023-12-22T11:37:13;19.85;;;12.13;;
58294;SDS011;45705;55.592;37.460;2023-12-22T11:39:40;19.88;;;10.00;;
58294;SDS011;45705;55.592;37.460;2023-12-22T11:44:38;21.95;;;12.07;;
58294;SDS011;45705;55.592;37.460;2023-12-22T11:47:08;21.85;;;9.73;;
58294;SDS011;45705;55.592;37.460;2023-12-22T11:49:35;21.83;;;11.05;;
58294;SDS011;45705;55.592;37.460;2023-12-22T11:54:46;23.90;;;12.27;;
58294;SDS011;45705;55.592;37.460;2023-12-22T12:02:40;16.50;;;8.18;;
58294;SDS011;45705;55.592;37.460;2023-12-22T12:05:09;25.50;;;12.20;;
58294;SDS011;45705;55.592;37.460;2023-12-22T12:10:14;23.15;;;12.45;;
58294;SDS011;45705;55.592;37.460;2023-12-22T12:13:06;20.13;;;11.57;;
58294;SDS011;45705;55.592;37.460;2023-12-22T12:15:35;14.60;;;7.82;;
58294;SDS011;45705;55.592;37.460;2023-12-22T12:18:03;22.27;;;11.65;;
58294;SDS011;45705;55.592;37.460;2023-12-22T12:20:29;22.23;;;12.73;;
58294;SDS011;45705;55.592;37.460;2023-12-22T12:22:56;16.27;;;10.02;;
58294;SDS011;45705;55.592;37.460;2023-12-22T12:25:22;20.48;;;11.50;;
58294;SDS011;45705;55.592;37.460;2023-12-22T12:28:01;21.17;;;10.30;;
58294;SDS011;45705;55.592;37.460;2023-12-22T12:30:28;20.15;;;11.13;;
58294;SDS011;45705;55.592;37.460;2023-12-22T12:32:54;20.70;;;10.25;;
58294;SDS011;45705;55.592;37.460;2023-12-22T12:35:20;18.08;;;10.55;;
58294;SDS011;45705;55.592;37.460;2023-12-22T12:37:49;20.38;;;10.82;;
58294;SDS011;45705;55.592;37.460;2023-12-22T12:40:16;22.33;;;11.55;;
58294;SDS011;45705;55.592;37.460;2023-12-22T12:42:49;18.85;;;9.95;;
58294;SDS011;45705;55.592;37.460;2023-12-22T12:45:15;20.40;;;10.05;;
58294;SDS011;45705;55.592;37.460;2023-12-22T12:48:00;16.08;;;10.25;;
58294;SDS011;45705;55.592;37.460;2023-12-22T12:50:29;13.38;;;8.13;;
58294;SDS011;45705;55.592;37.460;2023-12-22T12:52:56;16.60;;;9.60;;
58294;SDS011;45705;55.592;37.460;2023-12-22T12:55:23;17.27;;;9.85;;
58294;SDS011;45705;55.592;37.460;2023-12-22T12:57:51;16.92;;;9.50;;
58294;SDS011;45705;55.592;37.460;2023-12-22T13:00:27;17.67;;;9.90;;
58294;SDS011;45705;55.592;37.460;2023-12-22T13:02:55;17.60;;;9.82;;
58294;SDS011;45705;55.592;37.460;2023-12-22T13:05:32;18.27;;;10.48;;
58294;SDS011;45705;55.592;37.460;2023-12-22T13:10:34;15.55;;;10.18;;
58294;SDS011;45705;55.592;37.460;2023-12-22T13:13:00;19.48;;;10.57;;
58294;SDS011;45705;55.592;37.460;2023-12-22T13:15:26;21.50;;;11.02;;
58294;SDS011;45705;55.592;37.460;2023-12-22T13:17:52;17.23;;;10.50;;
58294;SDS011;45705;55.592;37.460;2023-12-22T13:20:18;20.85;;;10.85;;
58294;SDS011;45705;55.592;37.460;2023-12-22T13:22:44;20.38;;;11.02;;
58294;SDS011;45705;55.592;37.460;2023-12-22T13:25:10;18.73;;;10.60;;
58294;SDS011;45705;55.592;37.460;2023-12-22T13:27:50;18.00;;;10.10;;
58294;SDS011;45705;55.592;37.460;2023-12-22T13:30:36;20.38;;;10.60;;
58294;SDS011;45705;55.592;37.460;2023-12-22T13:33:06;18.00;;;10.52;;
58294;SDS011;45705;55.592;37.460;2023-12-22T13:35:33;17.13;;;10.27;;
58294;SDS011;45705;55.592;37.460;2023-12-22T13:38:02;20.00;;;10.43;;
58294;SDS011;45705;55.592;37.460;2023-12-22T13:40:31;21.25;;;11.77;;
58294;SDS011;45705;55.592;37.460;2023-12-22T13:42:57;17.00;;;9.85;;
58294;SDS011;45705;55.592;37.460;2023-12-22T13:45:24;24.85;;;13.20;;
58294;SDS011;45705;55.592;37.460;2023-12-22T13:47:50;21.15;;;11.10;;
58294;SDS011;45705;55.592;37.460;2023-12-22T13:50:16;21.58;;;11.27;;
58294;SDS011;45705;55.592;37.460;2023-12-22T13:52:44;22.45;;;12.65;;
58294;SDS011;45705;55.592;37.460;2023-12-22T13:55:14;22.20;;;12.77;;
58294;SDS011;45705;55.592;37.460;2023-12-22T13:57:41;20.73;;;10.25;;
58294;SDS011;45705;55.592;37.460;2023-12-22T14:02:42;19.45;;;10.95;;
58294;SDS011;45705;55.592;37.460;2023-12-22T14:05:08;25.92;;;12.38;;
58294;SDS011;45705;55.592;37.460;2023-12-22T14:07:34;20.73;;;11.80;;
58294;SDS011;45705;55.592;37.460;2023-12-22T14:10:09;20.00;;;11.98;;
58294;SDS011;45705;55.592;37.460;2023-12-22T14:12:37;19.65;;;11.40;;
58294;SDS011;45705;55.592;37.460;2023-12-22T14:15:12;18.55;;;10.60;;
58294;SDS011;45705;55.592;37.460;2023-12-22T14:17:38;23.00;;;11.45;;
58294;SDS011;45705;55.592;37.460;2023-12-22T14:20:04;19.10;;;9.85;;
58294;SDS011;45705;55.592;37.460;2023-12-22T14:22:32;16.93;;;10.00;;
58294;SDS011;45705;55.592;37.460;2023-12-22T14:24:59;18.75;;;10.85;;
58294;SDS011;45705;55.592;37.460;2023-12-22T14:27:25;16.92;;;9.57;;
58294;SDS011;45705;55.592;37.460;2023-12-22T14:29:51;21.05;;;11.25;;
58294;SDS011;45705;55.592;37.460;2023-12-22T14:32:16;16.58;;;9.73;;
58294;SDS011;45705;55.592;37.460;2023-12-22T14:34:45;19.92;;;11.02;;
58294;SDS011;45705;55.592;37.460;2023-12-22T14:37:11;22.20;;;11.98;;
58294;SDS011;45705;55.592;37.460;2023-12-22T14:39:37;18.05;;;9.50;;
58294;SDS011;45705;55.592;37.460;2023-12-22T14:42:03;22.50;;;11.55;;